Time;durP1;ratioP1;P1;durP2;ratioP2;P2;SDS_P1;SDS_P2;PMS_P1;PMS_P2;Temp;Humidity;BMP_temperature;BMP_pressure;BME280_temperature;BME280_humidity;BME280_pressure;Samples;Min_cycle;Max_cycle;Signal;HPM_P1;HPM_P2
2022/07/01 00:01:57;;;;;;;56.20;48.95;;;22.50;61.30;;;;;;5023582;27;89680;-59
2022/07/01 00:04:26;;;;;;;56.97;48.70;;;22.50;61.20;;;;;;5026588;27;85965;-58
2022/07/01 00:06:53;;;;;;;56.95;48.70;;;22.50;61.30;;;;;;5028282;27;85704;-58
2022/07/01 00:09:18;;;;;;;55.33;48.45;;;22.50;61.30;;;;;;5025494;27;85069;-57
2022/07/01 00:11:44;;;;;;;56.72;48.60;;;22.50;61.30;;;;;;5019735;27;86358;-58
2022/07/01 00:14:10;;;;;;;56.00;48.53;;;22.50;61.30;;;;;;5023937;27;84971;-58
2022/07/01 00:16:36;;;;;;;57.05;48.67;;;22.50;61.30;;;;;;5020432;27;85376;-59
2022/07/01 00:19:02;;;;;;;56.60;48.55;;;22.50;61.40;;;;;;5025545;27;88147;-59
2022/07/01 00:21:28;;;;;;;55.45;48.40;;;22.40;61.30;;;;;;5028417;27;85644;-57
2022/07/01 00:23:54;;;;;;;56.13;48.55;;;22.40;61.50;;;;;;5033219;27;85750;-59
2022/07/01 00:26:19;;;;;;;56.95;48.63;;;22.40;61.40;;;;;;5021669;27;87524;-59
2022/07/01 00:28:45;;;;;;;56.13;48.55;;;22.40;61.50;;;;;;5022756;27;87453;-58
2022/07/01 00:31:10;;;;;;;55.65;48.53;;;22.40;61.50;;;;;;5016079;27;91254;-58
2022/07/01 00:33:36;;;;;;;55.40;48.55;;;22.30;61.50;;;;;;5026875;27;87705;-58
2022/07/01 00:36:02;;;;;;;55.83;48.55;;;22.40;61.60;;;;;;5024520;27;85553;-58
2022/07/01 00:38:27;;;;;;;55.95;48.42;;;22.40;62.40;;;;;;5028315;27;91180;-58
2022/07/01 00:40:54;;;;;;;56.20;48.63;;;22.30;61.60;;;;;;5016035;27;85802;-57
2022/07/01 00:43:24;;;;;;;56.40;48.53;;;22.30;61.50;;;;;;5026401;27;85178;-58
2022/07/01 00:45:51;;;;;;;58.28;48.72;;;22.30;61.60;;;;;;5019818;27;89422;-59
2022/07/01 00:48:17;;;;;;;56.97;48.55;;;22.30;61.50;;;;;;5028446;27;86078;-59
2022/07/01 00:50:43;;;;;;;56.20;48.65;;;22.30;61.60;;;;;;5006655;27;86519;-55
2022/07/01 00:53:09;;;;;;;56.95;48.50;;;22.30;61.70;;;;;;5021633;27;87112;-59
2022/07/01 00:55:35;;;;;;;55.45;48.25;;;22.30;61.80;;;;;;5027743;27;85449;-59
2022/07/01 00:58:00;;;;;;;56.03;48.53;;;22.20;61.80;;;;;;5025400;27;85520;-59
2022/07/01 01:00:26;;;;;;;56.22;48.72;;;22.30;61.80;;;;;;5002031;27;86789;-57
2022/07/01 01:02:52;;;;;;;55.75;48.63;;;22.20;61.70;;;;;;5026669;27;87876;-58
2022/07/01 01:05:20;;;;;;;57.08;48.63;;;22.20;61.80;;;;;;5015456;27;87911;-55
2022/07/01 01:07:47;;;;;;;55.30;48.30;;;22.20;61.80;;;;;;5019880;27;88551;-59
2022/07/01 01:10:14;;;;;;;55.67;48.50;;;22.10;61.80;;;;;;5024444;27;86060;-59
2022/07/01 01:12:40;;;;;;;55.63;48.47;;;22.20;61.90;;;;;;5028383;27;85300;-59
2022/07/01 01:15:07;;;;;;;56.40;48.42;;;22.10;61.90;;;;;;5024894;27;85950;-57
2022/07/01 01:17:33;;;;;;;56.25;48.55;;;22.10;61.90;;;;;;5017823;27;85451;-59
2022/07/01 01:19:58;;;;;;;55.55;48.42;;;22.10;62.00;;;;;;5020089;27;85961;-59
2022/07/01 01:22:24;;;;;;;55.47;48.45;;;22.10;62.60;;;;;;5017053;27;89375;-56
2022/07/01 01:24:50;;;;;;;57.00;48.42;;;22.10;62.00;;;;;;5030852;27;87010;-58
2022/07/01 01:27:16;;;;;;;55.35;48.28;;;22.10;62.00;;;;;;5017510;27;85631;-59
2022/07/01 01:29:43;;;;;;;55.72;48.25;;;22.00;62.10;;;;;;5030652;27;85174;-58
2022/07/01 01:32:09;;;;;;;55.38;48.28;;;22.10;62.00;;;;;;5025800;27;86293;-57
2022/07/01 01:34:37;;;;;;;55.65;48.42;;;22.10;61.90;;;;;;5028423;27;85862;-59
2022/07/01 01:37:03;;;;;;;58.33;48.30;;;22.10;62.00;;;;;;5026619;27;88397;-59
2022/07/01 01:39:29;;;;;;;55.35;48.38;;;22.10;62.10;;;;;;5029957;27;85824;-59
2022/07/01 01:41:55;;;;;;;55.22;48.35;;;22.00;62.00;;;;;;5023561;27;87416;-58
2022/07/01 01:44:20;;;;;;;55.53;48.22;;;22.00;62.10;;;;;;5025404;27;88402;-59
2022/07/01 01:46:46;;;;;;;56.97;48.75;;;22.00;62.10;;;;;;5021864;27;89319;-58
2022/07/01 01:49:11;;;;;;;56.95;48.47;;;22.00;62.00;;;;;;5030541;27;85922;-59
2022/07/01 01:51:37;;;;;;;55.22;48.35;;;22.00;62.10;;;;;;5030736;27;85760;-59
2022/07/01 01:54:04;;;;;;;55.22;48.03;;;22.00;62.20;;;;;;5033183;27;87604;-58
2022/07/01 01:56:29;;;;;;;55.85;48.53;;;22.00;62.20;;;;;;5017603;27;90624;-58
2022/07/01 01:58:55;;;;;;;56.30;48.35;;;22.00;62.20;;;;;;5030609;27;90427;-59
2022/07/01 02:01:22;;;;;;;56.17;48.45;;;21.90;62.10;;;;;;5012901;27;95295;-59
2022/07/01 02:03:49;;;;;;;55.67;48.50;;;21.90;62.20;;;;;;5003627;27;93465;-59
2022/07/01 02:06:16;;;;;;;55.55;48.45;;;21.90;62.10;;;;;;5012417;27;89456;-59
2022/07/01 02:08:42;;;;;;;56.30;48.42;;;21.90;62.10;;;;;;5025959;27;92475;-59
2022/07/01 02:11:08;;;;;;;55.88;48.35;;;21.90;62.10;;;;;;5020702;27;90778;-57
2022/07/01 02:13:35;;;;;;;56.08;48.22;;;21.90;62.10;;;;;;5034422;27;92449;-58
2022/07/01 02:16:01;;;;;;;55.72;48.28;;;21.90;62.00;;;;;;5014300;27;96654;-58
2022/07/01 02:18:27;;;;;;;55.55;48.13;;;21.90;62.30;;;;;;5026147;27;92049;-59
2022/07/01 02:20:53;;;;;;;55.42;48.40;;;21.80;62.00;;;;;;5025594;27;90801;-58
2022/07/01 02:23:19;;;;;;;54.95;48.25;;;21.90;62.10;;;;;;5026495;27;90343;-57
2022/07/01 02:25:46;;;;;;;57.50;48.25;;;21.80;62.10;;;;;;5019907;27;90530;-57
2022/07/01 02:28:12;;;;;;;54.67;48.13;;;21.80;62.10;;;;;;5014831;27;95385;-58
2022/07/01 02:30:37;;;;;;;55.13;48.38;;;21.80;62.30;;;;;;5021236;27;92024;-59
2022/07/01 02:33:05;;;;;;;55.25;48.35;;;21.80;62.20;;;;;;5025875;27;91990;-58
2022/07/01 02:35:31;;;;;;;55.17;48.30;;;21.80;62.00;;;;;;5020469;27;89845;-59
2022/07/01 02:37:57;;;;;;;55.03;48.15;;;21.70;62.20;;;;;;5021469;27;90833;-56
2022/07/01 02:40:23;;;;;;;54.92;48.10;;;21.70;62.20;;;;;;5019769;27;91978;-59
2022/07/01 02:42:49;;;;;;;54.75;48.20;;;21.70;62.40;;;;;;5020506;27;90080;-59
2022/07/01 02:45:14;;;;;;;56.80;48.35;;;21.70;62.40;;;;;;5022597;27;89509;-55
2022/07/01 02:47:41;;;;;;;55.30;48.33;;;21.70;62.40;;;;;;5031004;27;90012;-58
2022/07/01 02:50:09;;;;;;;57.25;48.30;;;21.70;62.40;;;;;;5027295;27;89324;-59
2022/07/01 02:52:36;;;;;;;56.17;48.17;;;21.70;62.30;;;;;;5008147;27;92130;-55
2022/07/01 02:55:03;;;;;;;55.22;48.22;;;21.70;62.40;;;;;;5031802;27;89804;-58
2022/07/01 02:57:29;;;;;;;55.65;48.22;;;21.70;62.40;;;;;;5022165;27;91432;-58
2022/07/01 02:59:55;;;;;;;55.70;48.15;;;21.60;62.40;;;;;;5028908;27;91663;-58
2022/07/01 03:02:21;;;;;;;54.88;48.05;;;21.60;62.50;;;;;;5014878;27;90392;-59
2022/07/01 03:04:47;;;;;;;54.55;48.03;;;21.60;62.60;;;;;;5027817;27;95227;-57
2022/07/01 03:07:14;;;;;;;54.92;48.00;;;21.60;62.70;;;;;;5006913;27;97534;-59
2022/07/01 03:09:40;;;;;;;55.53;48.15;;;21.60;62.50;;;;;;5027629;27;90300;-58
2022/07/01 03:12:24;;;;;;;55.38;48.25;;;21.60;62.50;;;;;;5025250;27;89662;-58
2022/07/01 03:14:59;;;;;;;55.42;48.22;;;21.60;62.50;;;;;;5028383;27;90505;-57
2022/07/01 03:17:26;;;;;;;54.80;47.92;;;21.60;62.60;;;;;;5022573;27;93071;-59
2022/07/01 03:19:53;;;;;;;56.15;48.25;;;21.50;62.40;;;;;;5027225;27;89895;-59
2022/07/01 03:22:20;;;;;;;60.95;48.00;;;21.60;62.40;;;;;;5011546;27;91046;-58
2022/07/01 03:24:47;;;;;;;55.80;48.03;;;21.50;62.40;;;;;;5029520;27;91041;-59
2022/07/01 03:27:13;;;;;;;56.63;48.35;;;21.50;62.60;;;;;;5021985;27;90429;-59
2022/07/01 03:29:38;;;;;;;55.75;48.17;;;21.50;62.50;;;;;;5029916;27;90466;-58
2022/07/01 03:32:04;;;;;;;56.47;48.22;;;21.50;62.60;;;;;;5017857;27;91149;-57
2022/07/01 03:34:29;;;;;;;54.83;48.03;;;21.50;62.40;;;;;;5016992;27;91625;-58
2022/07/01 03:36:55;;;;;;;55.95;48.13;;;21.50;62.50;;;;;;5030276;27;90155;-59
2022/07/01 03:39:21;;;;;;;54.67;48.15;;;21.50;62.50;;;;;;5031011;27;90132;-57
2022/07/01 03:41:46;;;;;;;56.17;48.22;;;21.50;62.40;;;;;;5022583;27;90451;-58
2022/07/01 03:44:12;;;;;;;55.13;47.97;;;21.50;62.50;;;;;;5035969;27;89872;-59
2022/07/01 03:46:38;;;;;;;56.63;48.17;;;21.50;62.50;;;;;;5014396;27;91949;-59
2022/07/01 03:49:08;;;;;;;55.90;48.15;;;21.50;62.60;;;;;;5024799;27;89913;-57
2022/07/01 03:51:34;;;;;;;54.80;48.03;;;21.50;62.60;;;;;;5034069;27;89992;-58
2022/07/01 03:56:44;;;;;;;55.58;48.25;;;21.50;62.60;;;;;;5019034;27;89507;-58
2022/07/01 03:59:09;;;;;;;54.00;47.83;;;21.40;62.50;;;;;;5022997;27;89620;-58
2022/07/01 04:01:35;;;;;;;54.75;47.92;;;21.40;62.60;;;;;;5007697;27;93383;-55
2022/07/01 04:04:01;;;;;;;58.22;48.40;;;21.50;62.50;;;;;;5015150;27;90380;-58
2022/07/01 04:06:26;;;;;;;54.28;48.03;;;21.50;62.40;;;;;;5032899;27;92048;-58
2022/07/01 04:08:53;;;;;;;55.13;48.17;;;21.40;62.50;;;;;;5013765;27;91173;-56
2022/07/01 04:11:18;;;;;;;55.05;48.15;;;21.40;62.50;;;;;;5023492;27;90843;-58
2022/07/01 04:13:49;;;;;;;55.08;48.22;;;21.40;62.50;;;;;;5025417;27;89572;-57
2022/07/01 04:16:19;;;;;;;55.47;48.13;;;21.40;62.50;;;;;;5030283;27;90225;-59
2022/07/01 04:18:46;;;;;;;54.65;48.05;;;21.40;62.60;;;;;;5013706;27;94034;-58
2022/07/01 04:23:56;;;;;;;55.72;48.00;;;21.40;62.60;;;;;;5015603;27;96266;-58
2022/07/01 04:26:25;;;;;;;56.13;48.03;;;21.40;62.50;;;;;;5022184;27;93996;-58
2022/07/01 04:28:54;;;;;;;54.67;48.05;;;21.40;62.50;;;;;;5020923;27;89792;-56
2022/07/01 04:31:21;;;;;;;54.25;47.97;;;21.40;62.70;;;;;;5002781;27;89893;-58
2022/07/01 04:33:48;;;;;;;54.78;47.97;;;21.30;62.80;;;;;;5026628;27;90001;-58
2022/07/01 04:36:13;;;;;;;55.72;48.00;;;21.30;62.90;;;;;;5009659;27;91914;-59
2022/07/01 04:38:39;;;;;;;55.63;47.78;;;21.30;62.90;;;;;;5028091;27;89585;-57
2022/07/01 04:43:49;;;;;;;54.60;47.95;;;21.40;62.80;;;;;;5022758;27;89922;-57
2022/07/01 04:46:15;;;;;;;55.10;48.00;;;21.40;62.70;;;;;;5023522;27;91357;-58
2022/07/01 04:48:40;;;;;;;54.70;47.97;;;21.50;62.60;;;;;;5021390;27;90510;-58
2022/07/01 04:51:06;;;;;;;55.08;48.05;;;21.50;62.10;;;;;;5012524;27;89873;-58
2022/07/01 04:53:32;;;;;;;55.03;48.00;;;21.60;62.10;;;;;;5020126;27;90087;-58
2022/07/01 04:55:58;;;;;;;55.13;48.03;;;21.60;62.40;;;;;;5013522;27;90248;-59
2022/07/01 04:58:24;;;;;;;54.58;48.05;;;21.70;61.50;;;;;;5020531;27;91023;-58
2022/07/01 05:00:50;;;;;;;54.53;48.17;;;21.70;61.70;;;;;;5012457;27;94045;-59
2022/07/01 05:03:16;;;;;;;54.25;48.13;;;21.70;61.40;;;;;;5018435;27;90973;-56
2022/07/01 05:05:42;;;;;;;55.15;48.22;;;21.70;61.70;;;;;;5015862;27;91807;-58
2022/07/01 05:08:08;;;;;;;55.25;48.05;;;21.80;61.50;;;;;;4997303;27;89854;-58
2022/07/01 05:10:33;;;;;;;56.60;48.58;;;21.80;61.40;;;;;;5024256;27;92440;-58
2022/07/01 05:12:59;;;;;;;55.50;48.65;;;21.80;61.10;;;;;;5015186;27;90334;-59
2022/07/01 05:15:25;;;;;;;60.28;48.95;;;21.90;61.40;;;;;;5024446;27;90206;-58
2022/07/01 05:23:20;;;;;;;58.22;48.92;;;21.90;61.50;;;;;;5021367;27;91656;-57
2022/07/01 05:25:45;;;;;;;58.58;49.15;;;21.90;61.40;;;;;;5014523;27;91179;-59
2022/07/01 05:28:11;;;;;;;59.55;49.22;;;21.90;61.60;;;;;;5014366;27;90902;-55
2022/07/01 05:30:36;;;;;;;58.95;49.45;;;21.90;61.40;;;;;;4997563;27;93629;-59
2022/07/01 05:33:02;;;;;;;58.20;49.38;;;21.90;61.40;;;;;;5007276;27;90069;-58
2022/07/01 05:35:28;;;;;;;58.83;49.20;;;21.90;61.50;;;;;;5012966;27;90558;-57
2022/07/01 05:37:53;;;;;;;59.53;49.40;;;21.90;61.90;;;;;;5007044;27;94910;-57
2022/07/01 05:40:19;;;;;;;62.40;49.78;;;21.90;61.60;;;;;;5005492;27;94848;-59
2022/07/01 05:42:45;;;;;;;62.15;49.70;;;21.90;61.80;;;;;;5014110;27;91875;-59
2022/07/01 05:45:10;;;;;;;59.40;49.45;;;21.90;61.80;;;;;;5013693;27;91164;-59
2022/07/01 05:47:36;;;;;;;59.95;49.70;;;21.90;62.50;;;;;;4998867;27;90060;-57
2022/07/01 05:50:02;;;;;;;59.33;49.33;;;21.90;61.90;;;;;;4989694;27;91895;-58
2022/07/01 05:52:27;;;;;;;57.95;49.55;;;21.90;61.90;;;;;;5010230;27;90779;-58
2022/07/01 05:54:53;;;;;;;60.05;49.13;;;21.90;61.60;;;;;;5016447;27;90820;-58
2022/07/01 05:57:18;;;;;;;61.03;49.85;;;22.00;62.00;;;;;;5009220;27;90385;-57
2022/07/01 05:59:44;;;;;;;59.17;49.80;;;21.90;62.10;;;;;;4997300;27;91202;-58
2022/07/01 06:02:10;;;;;;;60.47;49.65;;;22.00;61.60;;;;;;5017070;27;92688;-58
2022/07/01 06:04:35;;;;;;;60.28;49.42;;;21.90;61.70;;;;;;5024914;27;94825;-58
2022/07/01 06:07:01;;;;;;;61.00;49.70;;;21.90;61.90;;;;;;5027705;27;89497;-58
2022/07/01 06:09:26;;;;;;;59.53;49.55;;;21.90;61.80;;;;;;5020266;27;90945;-57
2022/07/01 06:11:52;;;;;;;61.63;49.35;;;21.80;61.70;;;;;;5032068;27;90412;-58
2022/07/01 06:14:18;;;;;;;61.38;49.33;;;21.80;61.80;;;;;;5020003;27;90940;-58
2022/07/01 06:16:43;;;;;;;60.70;49.00;;;21.80;61.80;;;;;;5035566;27;92094;-54
2022/07/01 06:19:09;;;;;;;58.45;48.95;;;21.80;61.80;;;;;;5029244;27;89869;-58
2022/07/01 06:21:35;;;;;;;60.15;49.38;;;21.80;61.50;;;;;;5037159;27;90100;-58
2022/07/01 06:24:00;;;;;;;59.95;49.22;;;21.90;61.70;;;;;;5023535;27;92098;-57
2022/07/01 06:26:26;;;;;;;58.13;49.42;;;21.80;61.80;;;;;;5028245;27;91082;-58
2022/07/01 06:28:52;;;;;;;59.13;49.05;;;21.80;61.50;;;;;;5033604;27;89806;-57
2022/07/01 06:31:18;;;;;;;58.78;49.22;;;21.80;61.60;;;;;;5012870;27;91907;-58
2022/07/01 06:33:43;;;;;;;57.35;49.15;;;21.80;61.40;;;;;;5032218;27;92802;-58
2022/07/01 06:36:09;;;;;;;58.83;48.85;;;21.80;61.40;;;;;;5025487;27;89935;-58
2022/07/01 06:38:35;;;;;;;59.38;49.08;;;21.90;61.30;;;;;;5028624;27;91571;-58
2022/07/01 06:43:44;;;;;;;56.88;48.83;;;21.90;61.30;;;;;;5024626;27;89920;-58
2022/07/01 06:46:10;;;;;;;56.97;48.97;;;21.90;61.20;;;;;;5017773;27;94456;-55
2022/07/01 06:48:36;;;;;;;58.25;49.40;;;21.90;61.10;;;;;;5034389;27;90107;-58
2022/07/01 06:51:05;;;;;;;58.92;49.22;;;21.90;61.30;;;;;;5022894;27;91007;-58
2022/07/01 06:53:31;;;;;;;61.03;49.60;;;21.90;61.20;;;;;;5032098;27;89694;-58
2022/07/01 06:55:57;;;;;;;57.10;49.05;;;21.90;61.10;;;;;;5017353;27;95409;-58
2022/07/01 06:58:23;;;;;;;58.50;49.15;;;21.90;61.10;;;;;;5036488;27;89518;-58
2022/07/01 07:00:48;;;;;;;58.28;49.20;;;21.90;61.00;;;;;;5031291;27;91403;-55
2022/07/01 07:03:14;;;;;;;59.00;49.17;;;21.90;60.90;;;;;;5033873;27;90473;-55
2022/07/01 07:05:40;;;;;;;59.00;49.53;;;21.90;60.90;;;;;;5020144;27;90778;-56
2022/07/01 07:08:05;;;;;;;59.75;48.85;;;21.90;60.90;;;;;;5009291;27;93872;-54
2022/07/01 07:10:31;;;;;;;58.10;49.42;;;21.90;60.80;;;;;;5030259;27;90321;-58
2022/07/01 07:12:57;;;;;;;58.72;49.50;;;21.90;61.50;;;;;;5034926;27;89877;-55
2022/07/01 07:15:22;;;;;;;60.00;49.13;;;22.00;60.80;;;;;;5019512;27;90049;-57
2022/07/01 07:17:48;;;;;;;58.65;49.53;;;21.90;60.60;;;;;;5035740;27;89716;-57
2022/07/01 07:20:14;;;;;;;58.72;49.00;;;22.00;60.50;;;;;;5025719;27;88930;-58
2022/07/01 07:22:39;;;;;;;58.63;49.55;;;22.00;60.40;;;;;;5029897;27;89503;-58
2022/07/01 07:25:05;;;;;;;58.80;49.42;;;22.00;60.40;;;;;;5021380;27;89814;-58
2022/07/01 07:27:31;;;;;;;58.10;49.28;;;22.00;60.20;;;;;;5027279;27;90896;-58
2022/07/01 07:29:56;;;;;;;58.83;49.40;;;22.10;60.30;;;;;;5031273;27;90372;-58
2022/07/01 07:32:22;;;;;;;58.50;48.90;;;22.10;60.10;;;;;;5032286;27;90685;-56
2022/07/01 07:34:48;;;;;;;57.40;49.17;;;22.10;60.20;;;;;;5031870;27;92612;-57
2022/07/01 07:37:13;;;;;;;57.28;49.05;;;22.10;60.10;;;;;;5028709;27;89805;-59
2022/07/01 07:39:39;;;;;;;60.60;49.45;;;22.10;60.00;;;;;;5026734;27;91059;-57
2022/07/01 07:42:05;;;;;;;58.08;49.45;;;22.20;60.10;;;;;;5028714;27;90614;-59
2022/07/01 07:44:31;;;;;;;59.08;49.33;;;22.20;60.00;;;;;;5034171;27;89469;-59
2022/07/01 07:46:57;;;;;;;57.47;49.25;;;22.20;59.80;;;;;;5027708;27;91253;-57
2022/07/01 07:49:24;;;;;;;57.05;49.13;;;22.20;59.70;;;;;;5033419;27;89758;-58
2022/07/01 07:51:51;;;;;;;59.47;49.65;;;22.30;59.90;;;;;;5017648;27;90491;-59
2022/07/01 07:54:17;;;;;;;57.60;49.22;;;22.20;59.70;;;;;;5030973;27;90009;-55
2022/07/01 07:56:43;;;;;;;58.28;49.15;;;22.30;59.70;;;;;;5026890;27;89600;-59
2022/07/01 07:59:09;;;;;;;57.80;49.30;;;22.30;59.60;;;;;;5032752;27;89866;-58
2022/07/01 08:01:35;;;;;;;58.65;49.53;;;22.30;59.60;;;;;;5027822;27;91216;-58
2022/07/01 08:04:00;;;;;;;60.38;49.72;;;22.30;59.50;;;;;;5025361;27;90040;-56
2022/07/01 08:06:26;;;;;;;58.40;49.25;;;22.40;59.50;;;;;;5016942;27;90969;-58
2022/07/01 08:08:52;;;;;;;57.95;49.28;;;22.40;59.40;;;;;;5022766;27;91938;-59
2022/07/01 08:11:17;;;;;;;58.60;49.40;;;22.40;59.30;;;;;;5025283;27;90228;-55
2022/07/01 08:13:43;;;;;;;59.58;49.53;;;22.40;59.30;;;;;;5032617;27;89563;-58
2022/07/01 08:16:09;;;;;;;58.60;49.00;;;22.50;59.30;;;;;;5025066;27;90965;-58
2022/07/01 08:18:35;;;;;;;57.35;49.25;;;22.50;59.20;;;;;;5032602;27;89592;-58
2022/07/01 08:21:01;;;;;;;57.70;49.60;;;22.50;59.10;;;;;;5032843;27;90328;-55
2022/07/01 08:23:26;;;;;;;56.90;49.08;;;22.50;59.00;;;;;;5013251;27;89723;-59
2022/07/01 08:25:52;;;;;;;57.92;49.20;;;22.50;59.00;;;;;;5026813;27;89775;-58
2022/07/01 08:28:18;;;;;;;57.30;49.17;;;22.50;59.00;;;;;;5018532;27;89409;-59
2022/07/01 08:30:44;;;;;;;57.63;49.28;;;22.60;59.10;;;;;;5031458;27;90155;-59
2022/07/01 08:33:11;;;;;;;57.47;49.42;;;22.60;58.90;;;;;;5027482;27;88753;-58
2022/07/01 08:35:37;;;;;;;58.28;49.35;;;22.60;58.90;;;;;;5034821;27;89797;-58
2022/07/01 08:38:03;;;;;;;58.08;49.35;;;22.60;58.70;;;;;;5020544;27;98091;-55
2022/07/01 08:40:30;;;;;;;58.58;49.45;;;22.70;58.80;;;;;;5036683;27;92636;-58
2022/07/01 08:43:06;;;;;;;58.53;49.38;;;22.70;58.60;;;;;;5028916;27;90416;-57
2022/07/01 08:45:38;;;;;;;57.60;49.38;;;22.80;58.50;;;;;;5027908;27;93751;-58
2022/07/01 08:48:04;;;;;;;58.25;49.33;;;22.80;58.30;;;;;;5014560;27;89512;-58
2022/07/01 08:50:37;;;;;;;57.50;49.35;;;22.90;58.20;;;;;;5025315;27;93641;-55
2022/07/01 08:53:03;;;;;;;58.50;49.67;;;22.90;58.20;;;;;;5027435;27;90736;-56
2022/07/01 08:55:30;;;;;;;57.92;49.42;;;22.90;58.00;;;;;;5018610;27;89967;-57
2022/07/01 08:57:58;;;;;;;58.55;49.45;;;23.00;58.10;;;;;;5016265;27;89776;-56
2022/07/01 09:00:30;;;;;;;57.88;49.55;;;22.90;58.20;;;;;;5017111;27;90561;-57
2022/07/01 09:03:03;;;;;;;57.92;49.40;;;23.00;58.10;;;;;;5007218;27;89639;-58
2022/07/01 09:05:31;;;;;;;58.25;49.38;;;23.00;58.00;;;;;;5022575;27;91210;-58
2022/07/01 09:08:05;;;;;;;58.55;49.28;;;23.00;58.00;;;;;;5011401;27;89848;-58
2022/07/01 09:10:36;;;;;;;58.47;49.38;;;23.00;58.00;;;;;;5016187;27;89796;-58
2022/07/01 09:13:20;;;;;;;57.63;49.33;;;23.00;57.90;;;;;;5022969;27;89716;-55
2022/07/01 09:15:45;;;;;;;58.47;49.53;;;23.00;57.90;;;;;;5027842;27;93029;-59
2022/07/01 09:18:16;;;;;;;58.53;49.33;;;23.00;57.90;;;;;;5002429;27;89950;-59
2022/07/01 09:20:44;;;;;;;59.70;49.47;;;23.00;57.90;;;;;;5024894;27;92456;-59
2022/07/01 09:23:12;;;;;;;58.33;49.40;;;23.00;57.90;;;;;;5026397;27;90941;-59
2022/07/01 09:25:43;;;;;;;58.30;49.40;;;23.00;57.90;;;;;;5036984;27;89754;-60
2022/07/01 09:28:23;;;;;;;58.60;49.55;;;23.00;57.90;;;;;;5016573;27;94445;-56
2022/07/01 09:30:51;;;;;;;58.08;49.35;;;23.00;57.90;;;;;;5018041;27;91354;-59
2022/07/01 09:33:21;;;;;;;59.67;49.70;;;23.00;57.80;;;;;;5024296;27;91860;-59
2022/07/01 09:35:49;;;;;;;58.57;49.63;;;23.00;57.80;;;;;;5024344;27;89569;-59
2022/07/01 09:38:16;;;;;;;57.83;49.38;;;23.10;57.90;;;;;;5024172;27;89673;-58
2022/07/01 09:41:03;;;;;;;58.15;49.50;;;23.00;57.90;;;;;;5032978;27;90502;-58
2022/07/01 09:43:34;;;;;;;59.33;49.72;;;23.20;60.60;;;;;;5020510;27;92201;-59
2022/07/01 09:46:02;;;;;;;62.00;49.85;;;23.30;60.40;;;;;;5030604;27;89555;-59
2022/07/01 09:48:48;;;;;;;58.35;49.45;;;23.20;59.90;;;;;;5017639;27;93917;-59
2022/07/01 09:51:18;;;;;;;58.88;49.45;;;23.20;59.90;;;;;;5025158;27;91814;-59
2022/07/01 09:53:44;;;;;;;60.28;49.70;;;23.20;60.00;;;;;;5016320;27;92210;-59
2022/07/01 09:56:09;;;;;;;58.72;49.78;;;23.20;59.80;;;;;;5025832;27;94587;-60
2022/07/01 09:58:38;;;;;;;61.05;49.78;;;23.20;59.80;;;;;;5014819;27;91611;-59
2022/07/01 10:01:05;;;;;;;59.15;49.65;;;23.20;59.70;;;;;;5037134;27;89628;-53
2022/07/01 10:03:32;;;;;;;58.88;49.53;;;23.20;59.70;;;;;;5028208;27;89603;-56
2022/07/01 10:06:07;;;;;;;61.80;49.67;;;23.30;61.00;;;;;;5027001;27;90164;-54
2022/07/01 10:08:56;;;;;;;60.00;49.35;;;23.30;61.90;;;;;;5021083;27;89937;-56
2022/07/01 10:11:36;;;;;;;60.28;49.65;;;23.30;61.90;;;;;;5025196;27;90433;-55
2022/07/01 10:14:06;;;;;;;59.22;49.42;;;23.30;61.90;;;;;;5021749;27;89470;-54
2022/07/01 10:16:33;;;;;;;58.80;49.75;;;23.30;62.00;;;;;;5027755;27;94494;-52
2022/07/01 10:19:05;;;;;;;61.88;49.55;;;23.30;62.20;;;;;;5034754;27;89683;-52
2022/07/01 10:21:31;;;;;;;61.35;49.72;;;23.30;62.40;;;;;;5034078;27;91182;-55
2022/07/01 10:24:12;;;;;;;59.70;49.53;;;23.30;62.50;;;;;;5026848;27;91127;-51
2022/07/01 10:26:38;;;;;;;58.47;49.45;;;23.30;62.60;;;;;;5033300;27;90632;-56
2022/07/01 10:29:03;;;;;;;61.88;49.75;;;23.30;62.60;;;;;;5023803;27;89966;-55
2022/07/01 10:31:37;;;;;;;59.70;49.55;;;23.30;62.70;;;;;;5027691;27;90426;-56
2022/07/01 10:34:04;;;;;;;60.22;49.65;;;23.30;62.60;;;;;;5017159;27;92639;-55
2022/07/01 10:36:32;;;;;;;58.90;49.70;;;23.30;62.60;;;;;;5034024;27;89999;-55
2022/07/01 10:39:00;;;;;;;58.67;49.42;;;23.30;62.50;;;;;;5023073;27;88989;-55
2022/07/01 10:41:31;;;;;;;62.28;49.60;;;23.30;62.30;;;;;;5024330;27;90283;-54
2022/07/01 10:43:57;;;;;;;59.28;49.63;;;23.40;62.30;;;;;;5027749;27;91067;-56
2022/07/01 10:46:45;;;;;;;59.42;49.60;;;23.30;62.10;;;;;;5018759;27;90647;-55
2022/07/01 10:49:19;;;;;;;58.47;49.63;;;23.40;62.20;;;;;;5018500;27;90097;-53
2022/07/01 10:51:47;;;;;;;60.65;49.65;;;23.40;62.00;;;;;;5036349;27;89919;-56
2022/07/01 10:54:33;;;;;;;59.22;49.53;;;23.40;62.00;;;;;;5028856;27;90292;-56
2022/07/01 10:57:18;;;;;;;59.33;49.53;;;23.40;61.80;;;;;;5030203;27;89913;-56
2022/07/01 10:59:48;;;;;;;58.83;49.47;;;23.40;61.70;;;;;;5028544;27;90584;-54
2022/07/01 11:02:25;;;;;;;59.05;49.55;;;23.40;61.60;;;;;;5032123;27;89831;-56
2022/07/01 11:05:12;;;;;;;60.63;49.70;;;23.40;61.50;;;;;;5020654;27;90435;-52
2022/07/01 11:07:42;;;;;;;59.03;49.45;;;23.40;61.30;;;;;;5034644;27;89828;-55
2022/07/01 11:10:10;;;;;;;59.03;49.55;;;23.40;61.20;;;;;;5023393;27;95370;-52
2022/07/01 11:12:36;;;;;;;59.22;49.70;;;23.50;61.20;;;;;;5034302;27;91227;-53
2022/07/01 11:15:05;;;;;;;59.00;49.65;;;23.50;61.10;;;;;;5020415;27;89795;-52
2022/07/01 11:17:32;;;;;;;58.40;49.45;;;23.50;61.00;;;;;;5034004;27;89848;-55
2022/07/01 11:20:01;;;;;;;59.67;49.53;;;23.50;60.90;;;;;;5034237;27;93150;-52
2022/07/01 11:22:29;;;;;;;59.42;49.65;;;23.50;60.90;;;;;;5021322;27;89406;-55
2022/07/01 11:24:57;;;;;;;58.55;49.65;;;23.50;60.80;;;;;;5025194;27;90044;-55
2022/07/01 11:27:24;;;;;;;58.78;49.63;;;23.50;60.80;;;;;;5022512;27;89789;-55
2022/07/01 11:30:04;;;;;;;59.00;49.63;;;23.50;60.70;;;;;;5026833;27;89177;-54
2022/07/01 11:32:34;;;;;;;59.08;49.90;;;23.50;60.60;;;;;;5025748;27;89971;-56
2022/07/01 11:35:01;;;;;;;58.60;49.50;;;23.60;60.60;;;;;;5021080;27;89885;-53
2022/07/01 11:40:17;;;;;;;58.92;49.60;;;23.60;60.50;;;;;;5026133;27;94661;-54
2022/07/01 11:42:43;;;;;;;58.38;49.60;;;23.60;60.40;;;;;;5036201;27;89754;-55
2022/07/01 11:45:21;;;;;;;58.38;49.47;;;23.60;60.40;;;;;;5028838;27;90723;-55
2022/07/01 11:47:47;;;;;;;58.42;49.53;;;23.60;60.30;;;;;;5031911;27;89437;-56
2022/07/01 11:50:15;;;;;;;59.80;49.42;;;23.60;60.20;;;;;;5019660;27;89864;-53
2022/07/01 11:52:41;;;;;;;59.17;49.70;;;23.60;60.20;;;;;;5035123;27;90212;-55
2022/07/01 11:55:07;;;;;;;60.58;49.83;;;23.60;60.10;;;;;;5030629;27;89642;-55
2022/07/01 11:57:34;;;;;;;59.25;49.70;;;23.60;60.10;;;;;;5027042;27;89810;-54
2022/07/01 12:00:08;;;;;;;58.95;49.67;;;23.60;60.10;;;;;;5026885;27;89771;-54
2022/07/01 12:02:34;;;;;;;59.80;49.80;;;23.60;60.00;;;;;;5022516;27;93988;-55
2022/07/01 12:05:00;;;;;;;57.95;49.42;;;23.60;60.00;;;;;;5030192;27;89595;-54
2022/07/01 12:07:26;;;;;;;58.75;49.85;;;23.70;60.00;;;;;;5018850;27;89795;-56
2022/07/01 12:09:52;;;;;;;59.35;49.88;;;23.70;60.00;;;;;;5014780;27;92671;-55
2022/07/01 12:12:20;;;;;;;59.80;49.78;;;23.70;59.90;;;;;;5033918;27;92154;-54
2022/07/01 12:14:51;;;;;;;59.15;49.70;;;23.70;59.80;;;;;;5031224;27;89814;-53
2022/07/01 12:17:17;;;;;;;59.13;49.65;;;23.60;59.70;;;;;;5023273;27;90202;-51
2022/07/01 12:19:46;;;;;;;61.30;49.50;;;23.60;59.70;;;;;;5036985;27;90008;-54
2022/07/01 12:22:15;;;;;;;60.03;49.75;;;23.60;59.70;;;;;;5029965;27;91114;-51
2022/07/01 12:24:41;;;;;;;59.45;49.83;;;23.60;59.70;;;;;;5026702;27;89450;-56
2022/07/01 12:27:08;;;;;;;58.90;49.85;;;23.60;59.60;;;;;;5014895;27;93068;-54
2022/07/01 12:29:37;;;;;;;59.25;49.75;;;23.60;59.70;;;;;;5026990;27;90456;-53
2022/07/01 12:32:04;;;;;;;60.90;50.00;;;23.60;59.60;;;;;;5026310;27;89847;-54
2022/07/01 12:34:46;;;;;;;58.88;49.83;;;23.60;59.70;;;;;;5030149;27;89819;-53
2022/07/01 12:37:19;;;;;;;60.15;49.75;;;23.60;59.60;;;;;;5009900;27;95297;-51
2022/07/01 12:39:46;;;;;;;61.35;49.70;;;23.60;59.60;;;;;;5016688;27;89819;-54
2022/07/01 12:42:24;;;;;;;60.58;50.05;;;23.60;59.50;;;;;;5025332;27;90776;-55
2022/07/01 12:44:51;;;;;;;59.05;49.60;;;23.60;59.40;;;;;;5032181;27;89075;-53
2022/07/01 12:47:28;;;;;;;59.10;49.67;;;23.60;59.30;;;;;;5019997;27;90292;-53
2022/07/01 12:50:11;;;;;;;58.95;49.67;;;23.60;59.30;;;;;;5039420;27;90180;-54